createdAt,value
2023-04-19T00:00:21.360Z,92.41
2023-04-19T00:01:18.237Z,92.64
2023-04-19T00:02:14.993Z,92.91
2023-04-19T00:03:12.111Z,92.81
2023-04-19T00:04:08.943Z,92.88
2023-04-19T00:05:06.473Z,93.01
2023-04-19T00:06:03.548Z,93.19
2023-04-19T00:07:00.180Z,93.07
2023-04-19T00:07:57.035Z,93.09
2023-04-19T00:08:53.603Z,92.82
2023-04-19T00:09:50.256Z,93.23
2023-04-19T00:10:46.795Z,93.42
2023-04-19T00:11:43.408Z,93.60
2023-04-19T00:12:40.442Z,93.81
2023-04-19T00:13:37.122Z,93.63
2023-04-19T00:14:33.728Z,93.75
2023-04-19T00:15:30.416Z,93.92
2023-04-19T00:16:27.128Z,93.96
2023-04-19T00:17:23.778Z,94.08
2023-04-19T00:18:20.496Z,94.18
2023-04-19T00:19:17.096Z,94.17
2023-04-19T00:20:13.912Z,93.73
2023-04-19T00:21:10.510Z,93.60
2023-04-19T00:22:07.062Z,93.78
2023-04-19T00:23:03.825Z,93.56
2023-04-19T00:24:03.214Z,93.70
2023-04-19T00:24:59.862Z,93.67
2023-04-19T00:25:56.491Z,93.74
2023-04-19T00:26:53.104Z,93.94
2023-04-19T00:27:49.656Z,93.77
2023-04-19T00:28:46.343Z,93.84
2023-04-19T00:29:42.976Z,94.03
2023-04-19T00:30:39.602Z,93.91
2023-04-19T00:31:36.312Z,93.85
2023-04-19T00:32:32.955Z,93.56
2023-04-19T00:33:29.538Z,93.62
2023-04-19T00:34:26.135Z,93.34
2023-04-19T00:35:22.713Z,93.55
2023-04-19T00:36:19.260Z,93.38
2023-04-19T00:37:16.310Z,93.58
2023-04-19T00:38:12.928Z,93.52
2023-04-19T00:39:09.487Z,93.57
2023-04-19T00:40:06.788Z,93.51
2023-04-19T00:41:03.381Z,93.47
2023-04-19T00:42:00.007Z,93.53
2023-04-19T00:42:56.650Z,93.68
2023-04-19T00:43:53.283Z,93.62
2023-04-19T00:44:49.904Z,93.87
2023-04-19T00:45:48.060Z,93.72
2023-04-19T00:46:45.489Z,93.79
2023-04-19T00:47:42.331Z,93.56
2023-04-19T00:48:39.128Z,93.47
2023-04-19T00:49:35.844Z,93.34
2023-04-19T00:50:32.534Z,93.37
2023-04-19T00:51:29.279Z,93.25
2023-04-19T00:52:26.132Z,93.21
2023-04-19T00:53:22.763Z,93.22
2023-04-19T00:54:20.418Z,93.27
2023-04-19T00:55:17.132Z,93.27
2023-04-19T00:56:14.917Z,92.91
2023-04-19T00:57:11.480Z,93.09
2023-04-19T00:58:09.384Z,92.83
2023-04-19T00:59:06.792Z,92.72
2023-04-19T01:00:06.657Z,92.62
2023-04-19T01:01:03.210Z,92.33
2023-04-19T01:02:00.053Z,92.21
2023-04-19T01:02:56.848Z,92.13
2023-04-19T01:03:53.753Z,92.22
2023-04-19T01:04:50.546Z,92.32
2023-04-19T01:05:48.688Z,92.17
2023-04-19T01:06:45.368Z,92.27
2023-04-19T01:07:43.281Z,92.08
2023-04-19T01:08:40.259Z,91.81
2023-04-19T01:09:41.075Z,92.08
2023-04-19T01:10:37.695Z,91.74
2023-04-19T01:11:34.420Z,91.72
2023-04-19T01:12:31.049Z,91.59
2023-04-19T01:13:28.121Z,91.79
2023-04-19T01:14:24.774Z,91.77
2023-04-19T01:15:21.419Z,91.62
2023-04-19T01:16:18.461Z,91.46
2023-04-19T01:17:15.231Z,91.54
2023-04-19T01:18:11.910Z,91.30
2023-04-19T01:19:08.664Z,91.39
2023-04-19T01:20:08.103Z,91.60
2023-04-19T01:21:05.503Z,91.43
2023-04-19T01:22:03.999Z,91.26
2023-04-19T01:23:00.789Z,91.07
2023-04-19T01:23:57.333Z,90.94
2023-04-19T01:24:54.217Z,91.30
2023-04-19T01:25:50.985Z,91.25
2023-04-19T01:26:48.048Z,91.23
2023-04-19T01:27:44.727Z,91.53
2023-04-19T01:28:41.323Z,91.24
2023-04-19T01:29:37.934Z,91.24
2023-04-19T01:30:36.869Z,91.04
2023-04-19T01:31:33.529Z,91.20
2023-04-19T01:32:30.214Z,91.20
2023-04-19T01:33:26.964Z,91.14
2023-04-19T01:34:23.565Z,90.92
2023-04-19T01:35:21.415Z,91.09
2023-04-19T01:36:17.992Z,91.02
2023-04-19T01:37:14.882Z,90.98
2023-04-19T01:38:11.499Z,91.23
2023-04-19T01:39:08.627Z,91.33
2023-04-19T01:40:06.076Z,91.24
2023-04-19T01:41:02.753Z,91.55
2023-04-19T01:41:59.414Z,91.55
2023-04-19T01:42:55.997Z,91.45
2023-04-19T01:43:53.264Z,91.44
2023-04-19T01:44:49.860Z,91.25
2023-04-19T01:45:46.521Z,91.53
2023-04-19T01:46:43.172Z,91.26
2023-04-19T01:47:39.892Z,91.49
2023-04-19T01:48:36.534Z,91.71
2023-04-19T01:49:33.285Z,91.38
2023-04-19T01:50:30.773Z,91.66
2023-04-19T01:51:27.472Z,91.60
2023-04-19T01:52:24.143Z,91.64
2023-04-19T01:53:20.864Z,91.44
2023-04-19T01:54:17.735Z,92.03
2023-04-19T01:55:14.470Z,92.10
2023-04-19T01:56:11.100Z,91.95
2023-04-19T01:57:07.976Z,91.94
2023-04-19T01:58:04.551Z,91.89
2023-04-19T01:59:01.165Z,92.09
2023-04-19T01:59:57.844Z,91.95
2023-04-19T02:00:54.488Z,91.94
2023-04-19T02:01:51.170Z,91.68
2023-04-19T02:02:48.175Z,91.56
2023-04-19T02:03:45.181Z,91.78
2023-04-19T02:04:41.890Z,91.70
2023-04-19T02:05:41.555Z,91.30
2023-04-19T02:06:38.315Z,91.34
2023-04-19T02:07:35.352Z,91.03
2023-04-19T02:08:32.393Z,90.85
2023-04-19T02:09:29.175Z,90.81
2023-04-19T02:10:25.902Z,91.18
2023-04-19T02:11:22.571Z,91.25
2023-04-19T02:12:19.386Z,91.14
2023-04-19T02:13:16.305Z,91.35
2023-04-19T02:14:13.097Z,91.20
2023-04-19T02:15:10.347Z,91.30
2023-04-19T02:16:07.491Z,91.54
2023-04-19T02:17:04.157Z,91.36
2023-04-19T02:18:00.977Z,91.19
2023-04-19T02:18:57.597Z,91.47
2023-04-19T02:19:54.512Z,91.46
2023-04-19T02:20:51.953Z,91.55
2023-04-19T02:21:48.521Z,91.39
2023-04-19T02:22:45.210Z,91.48
2023-04-19T02:23:41.777Z,91.32
2023-04-19T02:24:38.397Z,91.32
2023-04-19T02:25:34.946Z,91.45
2023-04-19T02:26:31.494Z,91.36
2023-04-19T02:27:29.150Z,91.34
2023-04-19T02:28:25.697Z,90.90
2023-04-19T02:29:22.322Z,90.74
2023-04-19T02:30:19.003Z,90.40
2023-04-19T02:31:15.713Z,89.98
2023-04-19T02:32:13.313Z,90.02
2023-04-19T02:33:10.024Z,90.11
2023-04-19T02:34:06.698Z,90.16
2023-04-19T02:35:03.526Z,89.76
2023-04-19T02:36:00.553Z,89.21
2023-04-19T02:36:57.162Z,89.37
2023-04-19T02:37:53.792Z,89.17
2023-04-19T02:38:50.409Z,89.56
2023-04-19T02:39:47.404Z,89.47
2023-04-19T02:40:44.229Z,89.24
2023-04-19T02:41:41.637Z,89.14
2023-04-19T02:42:38.242Z,89.13
2023-04-19T02:43:34.902Z,88.23
2023-04-19T02:44:31.586Z,87.75
2023-04-19T02:45:28.127Z,87.75
2023-04-19T02:46:24.944Z,87.94
2023-04-19T02:47:21.932Z,88.23
2023-04-19T02:48:18.582Z,88.86
2023-04-19T02:49:15.224Z,89.02
2023-04-19T02:50:12.540Z,89.13
2023-04-19T02:51:15.545Z,89.12
2023-04-19T02:52:12.170Z,89.37
2023-04-19T02:53:08.755Z,89.68
2023-04-19T02:54:05.524Z,89.31
2023-04-19T02:55:02.117Z,89.83
2023-04-19T02:55:58.746Z,89.86
2023-04-19T02:56:55.317Z,90.00
2023-04-19T02:57:52.174Z,90.44
2023-04-19T02:58:48.831Z,90.42
2023-04-19T02:59:45.413Z,90.49
2023-04-19T03:00:42.484Z,90.56
2023-04-19T03:01:39.203Z,90.65
2023-04-19T03:02:36.432Z,90.46
2023-04-19T03:03:33.212Z,90.64
2023-04-19T03:04:31.423Z,90.83
2023-04-19T03:05:28.206Z,90.91
2023-04-19T03:06:25.054Z,90.76
2023-04-19T03:07:21.684Z,90.49
2023-04-19T03:08:18.600Z,90.51
2023-04-19T03:09:15.386Z,90.67
2023-04-19T03:10:11.977Z,91.17
2023-04-19T03:11:08.627Z,91.02
2023-04-19T03:12:07.401Z,90.66
2023-04-19T03:13:03.937Z,90.48
2023-04-19T03:14:00.787Z,90.34
2023-04-19T03:14:57.339Z,90.29
2023-04-19T03:15:53.997Z,90.75
2023-04-19T03:16:50.628Z,90.78
2023-04-19T03:17:47.241Z,90.71
2023-04-19T03:18:43.799Z,91.16
2023-04-19T03:19:40.482Z,91.20
2023-04-19T03:20:37.049Z,90.78
2023-04-19T03:21:33.688Z,90.83
2023-04-19T03:22:30.756Z,91.01
2023-04-19T03:23:27.675Z,91.63
2023-04-19T03:24:29.261Z,91.41
2023-04-19T03:25:26.343Z,91.61
2023-04-19T03:26:22.895Z,91.83
2023-04-19T03:27:19.567Z,92.16
2023-04-19T03:28:16.116Z,92.37
2023-04-19T03:29:14.381Z,92.31
2023-04-19T03:30:12.707Z,92.39
2023-04-19T03:31:09.294Z,92.58
2023-04-19T03:32:06.859Z,93.02
2023-04-19T03:33:03.501Z,93.05
2023-04-19T03:34:00.187Z,92.79
2023-04-19T03:34:56.710Z,92.61
2023-04-19T03:35:53.283Z,92.75
2023-04-19T03:36:49.886Z,92.50
2023-04-19T03:37:46.487Z,92.74
2023-04-19T03:38:44.532Z,92.73
2023-04-19T03:39:41.115Z,92.99
2023-04-19T03:40:38.080Z,92.94
2023-04-19T03:41:34.674Z,92.83
2023-04-19T03:42:31.245Z,92.56
2023-04-19T03:43:28.004Z,92.38
2023-04-19T03:44:24.580Z,92.31
2023-04-19T03:45:21.320Z,92.28
2023-04-19T03:46:18.069Z,92.22
2023-04-19T03:47:14.749Z,91.87
2023-04-19T03:48:11.357Z,91.66
2023-04-19T03:49:08.031Z,91.20
2023-04-19T03:50:05.036Z,91.37
2023-04-19T03:51:01.615Z,91.72
2023-04-19T03:51:58.180Z,91.78
2023-04-19T03:52:54.904Z,91.79
2023-04-19T03:53:51.519Z,91.15
2023-04-19T03:54:48.147Z,91.20
2023-04-19T03:55:46.009Z,90.73
2023-04-19T03:56:42.641Z,90.94
2023-04-19T03:57:39.176Z,90.05
2023-04-19T03:58:35.778Z,89.78
2023-04-19T03:59:32.398Z,89.66
2023-04-19T04:00:28.979Z,89.18
2023-04-19T04:01:26.821Z,88.37
2023-04-19T04:02:23.582Z,88.40
2023-04-19T04:03:20.501Z,88.89
2023-04-19T04:04:17.734Z,88.63
2023-04-19T04:05:15.305Z,88.02
2023-04-19T04:06:12.089Z,87.22
2023-04-19T04:07:08.746Z,86.82
2023-04-19T04:08:05.719Z,87.49
2023-04-19T04:09:02.641Z,87.66
2023-04-19T04:09:59.282Z,88.35
2023-04-19T04:10:55.974Z,89.17
2023-04-19T04:11:52.581Z,89.19
2023-04-19T04:12:49.169Z,88.99
2023-04-19T04:13:46.661Z,88.77
2023-04-19T04:14:43.383Z,88.79
2023-04-19T04:15:39.965Z,89.22
2023-04-19T04:16:36.648Z,89.18
2023-04-19T04:17:33.376Z,89.30
2023-04-19T04:18:30.921Z,89.32
2023-04-19T04:19:27.545Z,90.48
2023-04-19T04:20:24.216Z,90.46
2023-04-19T04:21:21.219Z,90.45
2023-04-19T04:22:17.824Z,90.08
2023-04-19T04:23:14.500Z,90.30
2023-04-19T04:24:11.110Z,90.56
2023-04-19T04:25:08.219Z,90.94
2023-04-19T04:26:06.251Z,89.83
2023-04-19T04:27:03.287Z,89.01
2023-04-19T04:28:00.027Z,89.22
2023-04-19T04:28:57.330Z,89.62
2023-04-19T04:29:54.559Z,89.83
2023-04-19T04:30:51.986Z,90.37
2023-04-19T04:31:48.778Z,90.57
2023-04-19T04:32:47.030Z,91.00
2023-04-19T04:33:46.164Z,90.69
2023-04-19T04:34:43.097Z,91.09
2023-04-19T04:35:39.973Z,90.84
2023-04-19T04:36:37.682Z,90.90
2023-04-19T04:37:35.369Z,91.08
2023-04-19T04:38:32.243Z,90.78
2023-04-19T04:39:29.766Z,89.54
2023-04-19T04:40:26.855Z,89.74
2023-04-19T04:41:23.604Z,90.01
2023-04-19T04:42:21.587Z,90.23
2023-04-19T04:43:18.360Z,89.97
2023-04-19T04:44:15.396Z,89.80
2023-04-19T04:45:13.012Z,89.72
2023-04-19T04:46:09.584Z,89.96
2023-04-19T04:47:06.159Z,89.58
2023-04-19T04:48:02.828Z,88.72
2023-04-19T04:48:59.457Z,88.61
2023-04-19T04:49:56.101Z,88.77
2023-04-19T04:50:52.768Z,87.66
2023-04-19T04:51:49.406Z,87.52
2023-04-19T04:52:46.305Z,87.54
2023-04-19T04:53:42.883Z,87.41
2023-04-19T04:54:39.456Z,86.24
2023-04-19T04:55:36.478Z,85.66
2023-04-19T04:56:33.120Z,85.79
2023-04-19T04:57:29.859Z,86.31
2023-04-19T04:58:26.516Z,86.85
2023-04-19T04:59:23.083Z,87.25
2023-04-19T05:00:20.123Z,87.21
2023-04-19T05:01:19.510Z,86.58
2023-04-19T05:02:17.028Z,85.30
2023-04-19T05:03:13.975Z,84.29
2023-04-19T05:04:10.733Z,85.39
2023-04-19T05:05:07.723Z,86.33
2023-04-19T05:06:04.434Z,87.06
2023-04-19T05:07:01.208Z,87.60
2023-04-19T05:07:57.947Z,87.44
2023-04-19T05:08:54.504Z,86.84
2023-04-19T05:09:51.185Z,86.73
2023-04-19T05:10:47.883Z,87.43
2023-04-19T05:11:44.555Z,87.75
2023-04-19T05:12:41.810Z,87.11
2023-04-19T05:13:38.404Z,86.75
2023-04-19T05:14:34.992Z,86.00
2023-04-19T05:15:31.548Z,85.05
2023-04-19T05:16:28.327Z,85.92
2023-04-19T05:17:25.000Z,85.72
2023-04-19T05:18:21.695Z,86.70
2023-04-19T05:19:18.303Z,86.05
2023-04-19T05:20:15.192Z,86.66
2023-04-19T05:21:12.002Z,86.73
2023-04-19T05:22:08.654Z,85.47
2023-04-19T05:23:05.345Z,86.08
2023-04-19T05:24:02.047Z,85.63
2023-04-19T05:24:58.621Z,84.38
2023-04-19T05:25:55.242Z,83.57
2023-04-19T05:26:51.838Z,83.30
2023-04-19T05:27:48.447Z,82.99
2023-04-19T05:28:45.676Z,82.10
2023-04-19T05:29:42.283Z,81.47
2023-04-19T05:30:38.927Z,80.77
2023-04-19T05:31:35.601Z,80.51
2023-04-19T05:32:32.433Z,80.93
2023-04-19T05:33:29.142Z,79.70
2023-04-19T05:34:26.079Z,79.51
2023-04-19T05:35:22.702Z,79.78
2023-04-19T05:36:19.379Z,80.14
2023-04-19T05:37:16.135Z,80.20
2023-04-19T05:38:12.763Z,80.67
2023-04-19T05:39:09.632Z,81.57
2023-04-19T05:40:10.040Z,80.93
2023-04-19T05:41:06.687Z,79.95
2023-04-19T05:42:03.349Z,80.90
2023-04-19T05:42:59.913Z,81.88
2023-04-19T05:43:56.506Z,82.48
2023-04-19T05:44:53.177Z,82.33
2023-04-19T05:45:49.818Z,82.92
2023-04-19T05:46:46.425Z,84.07
2023-04-19T05:47:43.067Z,83.64
2023-04-19T05:48:39.659Z,83.37
2023-04-19T05:49:36.298Z,82.58
2023-04-19T05:50:32.953Z,81.30
2023-04-19T05:51:29.545Z,81.61
2023-04-19T05:52:26.200Z,82.32
2023-04-19T05:53:22.836Z,81.18
2023-04-19T05:54:19.796Z,81.53
2023-04-19T05:55:16.652Z,81.07
2023-04-19T05:56:13.325Z,81.10
2023-04-19T05:57:10.009Z,80.12
2023-04-19T05:58:06.588Z,80.07
2023-04-19T05:59:03.278Z,79.52
2023-04-19T06:01:02.313Z,80.66
2023-04-19T06:01:59.683Z,80.57
2023-04-19T06:02:56.555Z,80.31
2023-04-19T06:03:54.457Z,81.61
2023-04-19T06:04:51.451Z,81.08
2023-04-19T06:05:48.194Z,81.46
2023-04-19T06:06:44.927Z,82.84
2023-04-19T06:07:47.142Z,82.21
2023-04-19T06:08:53.322Z,80.86
2023-04-19T06:09:51.154Z,80.41
2023-04-19T06:10:54.604Z,79.34
2023-04-19T06:11:54.809Z,79.11
2023-04-19T06:12:51.585Z,79.25
2023-04-19T06:13:48.333Z,77.42
2023-04-19T06:14:44.953Z,77.71
2023-04-19T06:15:41.914Z,78.82
2023-04-19T06:16:38.720Z,77.44
2023-04-19T06:17:35.551Z,78.33
2023-04-19T06:18:32.167Z,77.05
2023-04-19T06:19:28.770Z,79.30
2023-04-19T06:20:25.390Z,80.18
2023-04-19T06:21:22.057Z,77.95
2023-04-19T06:22:18.739Z,78.48
2023-04-19T06:23:15.627Z,77.91
2023-04-19T06:24:12.304Z,77.41
2023-04-19T06:25:09.139Z,79.20
2023-04-19T06:26:05.850Z,78.36
2023-04-19T06:27:02.584Z,79.84
2023-04-19T06:27:59.554Z,78.56
2023-04-19T06:28:56.251Z,78.27
2023-04-19T06:29:52.875Z,78.57
2023-04-19T06:30:49.534Z,78.38
2023-04-19T06:31:46.530Z,78.31
2023-04-19T06:32:43.349Z,78.09
2023-04-19T06:33:40.019Z,78.12
2023-04-19T06:34:36.634Z,77.54
2023-04-19T06:35:33.323Z,78.06
2023-04-19T06:36:30.013Z,78.17
2023-04-19T06:37:26.633Z,79.29
2023-04-19T06:38:23.285Z,80.44
2023-04-19T06:39:20.271Z,80.10
2023-04-19T06:40:16.970Z,79.77
2023-04-19T06:41:13.550Z,79.82
2023-04-19T06:42:10.446Z,79.99
2023-04-19T06:43:07.072Z,80.27
2023-04-19T06:44:03.756Z,79.97
2023-04-19T06:45:01.329Z,80.25
2023-04-19T06:46:03.193Z,79.53
2023-04-19T06:46:59.896Z,78.12
2023-04-19T06:47:56.578Z,78.44
2023-04-19T06:48:53.264Z,78.61
2023-04-19T06:49:49.878Z,77.56
2023-04-19T06:50:46.985Z,78.81
2023-04-19T06:51:43.608Z,78.16
2023-04-19T06:52:40.530Z,78.58
2023-04-19T06:53:37.997Z,78.82
2023-04-19T06:54:34.656Z,78.68
2023-04-19T06:55:31.282Z,77.68
2023-04-19T06:56:48.720Z,75.69
2023-04-19T06:57:45.298Z,74.54
2023-04-19T06:58:41.997Z,74.71
2023-04-19T06:59:39.877Z,76.41
2023-04-19T07:00:37.106Z,76.63
2023-04-19T07:01:33.789Z,76.52
2023-04-19T07:02:30.544Z,76.38
2023-04-19T07:03:27.563Z,75.30
2023-04-19T07:04:25.433Z,76.10
2023-04-19T07:05:22.188Z,76.14
2023-04-19T07:06:18.806Z,76.07
2023-04-19T07:07:15.775Z,75.69
2023-04-19T07:08:12.444Z,75.38
2023-04-19T07:09:09.065Z,74.49
2023-04-19T07:10:06.254Z,73.60
2023-04-19T07:11:02.914Z,74.49
2023-04-19T07:11:59.518Z,75.26
2023-04-19T07:12:56.104Z,76.03
2023-04-19T07:13:52.708Z,76.84
2023-04-19T07:14:49.304Z,75.80
2023-04-19T07:15:45.915Z,75.29
2023-04-19T07:16:43.052Z,74.70
2023-04-19T07:17:40.323Z,73.93
2023-04-19T07:18:36.975Z,73.75
2023-04-19T07:19:35.586Z,73.07
2023-04-19T07:20:32.405Z,73.81
2023-04-19T07:21:33.230Z,73.27
2023-04-19T07:22:29.862Z,73.14
2023-04-19T07:23:26.425Z,73.38
2023-04-19T07:24:23.135Z,73.02
2023-04-19T07:25:20.397Z,73.07
2023-04-19T07:26:17.016Z,72.11
2023-04-19T07:27:14.555Z,71.46
2023-04-19T07:28:11.590Z,73.04
2023-04-19T07:29:08.645Z,72.05
2023-04-19T07:30:06.171Z,71.09
2023-04-19T07:31:03.037Z,71.29
2023-04-19T07:32:01.492Z,71.95
2023-04-19T07:32:58.213Z,73.27
2023-04-19T07:33:54.872Z,73.37
2023-04-19T07:34:51.900Z,72.67
2023-04-19T07:35:48.474Z,72.79
2023-04-19T07:36:45.041Z,71.85
2023-04-19T07:37:42.304Z,72.06
2023-04-19T07:38:38.927Z,73.53
2023-04-19T07:39:35.666Z,73.32
2023-04-19T07:40:32.244Z,73.00
2023-04-19T07:41:29.096Z,72.56
2023-04-19T07:42:26.051Z,72.55
2023-04-19T07:43:22.695Z,71.62
2023-04-19T07:44:19.498Z,70.10
2023-04-19T07:45:16.402Z,70.74
2023-04-19T07:46:16.389Z,70.10
2023-04-19T07:47:13.015Z,69.35
2023-04-19T07:48:10.179Z,69.84
2023-04-19T07:49:06.858Z,69.74
2023-04-19T07:50:05.818Z,69.62
2023-04-19T07:51:12.768Z,69.30
2023-04-19T07:52:09.391Z,69.02
2023-04-19T07:53:06.049Z,69.92
2023-04-19T07:54:02.653Z,69.41
2023-04-19T07:54:59.385Z,69.06
2023-04-19T07:55:56.073Z,68.50
2023-04-19T07:56:52.674Z,67.99
2023-04-19T07:57:49.784Z,67.65
2023-04-19T07:58:50.804Z,68.11
2023-04-19T07:59:58.059Z,67.59
2023-04-19T08:00:54.734Z,69.74
2023-04-19T08:01:51.468Z,69.78
2023-04-19T08:02:49.364Z,68.45
2023-04-19T08:03:49.208Z,66.29
2023-04-19T08:04:49.764Z,66.56
2023-04-19T08:05:46.971Z,66.68
2023-04-19T08:06:43.639Z,67.42
2023-04-19T08:07:40.592Z,67.45
2023-04-19T08:08:37.456Z,66.77
2023-04-19T08:09:34.569Z,68.32
2023-04-19T08:10:31.643Z,68.17
2023-04-19T08:11:28.561Z,67.94
2023-04-19T08:12:36.416Z,68.28
2023-04-19T08:13:35.237Z,67.09
2023-04-19T08:14:40.471Z,67.55
2023-04-19T08:17:42.811Z,71.16
2023-04-19T08:18:39.823Z,69.43
2023-04-19T08:19:37.302Z,69.41
2023-04-19T08:20:34.063Z,68.53
2023-04-19T08:21:40.715Z,68.56
2023-04-19T08:22:39.423Z,68.74
2023-04-19T08:23:47.450Z,69.58
2023-04-19T08:24:44.804Z,69.64
2023-04-19T08:25:41.474Z,69.35
2023-04-19T08:26:39.251Z,70.27
2023-04-19T08:27:35.942Z,70.00
2023-04-19T08:28:32.522Z,70.80
2023-04-19T08:29:29.129Z,71.02
2023-04-19T08:30:27.105Z,71.34
2023-04-19T08:31:23.795Z,70.49
2023-04-19T08:32:20.820Z,70.33
2023-04-19T08:33:18.003Z,71.12
2023-04-19T08:34:14.617Z,70.95
2023-04-19T08:35:11.258Z,71.34
2023-04-19T08:36:08.558Z,71.69
2023-04-19T08:37:05.955Z,73.06
2023-04-19T08:38:03.302Z,71.56
2023-04-19T08:39:06.584Z,72.33
2023-04-19T08:40:17.821Z,73.03
2023-04-19T08:41:15.685Z,71.36
2023-04-19T08:42:24.694Z,72.72
2023-04-19T08:43:33.495Z,72.82
2023-04-19T08:44:36.344Z,73.86
2023-04-19T08:45:33.653Z,74.02
2023-04-19T08:46:31.487Z,74.06
2023-04-19T08:47:32.481Z,72.23
2023-04-19T08:48:31.457Z,73.51
2023-04-19T08:49:28.694Z,72.51
2023-04-19T08:50:33.152Z,71.92
2023-04-19T08:51:32.986Z,71.07
2023-04-19T08:52:30.543Z,70.69
2023-04-19T08:53:29.685Z,70.60
2023-04-19T08:54:26.502Z,71.51
2023-04-19T08:55:23.282Z,70.11
2023-04-19T08:56:34.464Z,69.72
2023-04-19T08:57:32.610Z,69.00
2023-04-19T08:58:45.690Z,68.60
2023-04-19T08:59:52.270Z,68.78
2023-04-19T09:00:48.955Z,69.01
2023-04-19T09:01:45.666Z,69.02
2023-04-19T09:02:51.297Z,66.83
2023-04-19T09:04:01.176Z,67.34
2023-04-19T09:05:05.267Z,68.45
2023-04-19T09:06:02.276Z,68.61
2023-04-19T09:06:59.000Z,68.66
2023-04-19T09:08:16.235Z,67.40
2023-04-19T09:10:22.783Z,66.13
2023-04-19T09:11:20.216Z,65.51
2023-04-19T09:12:18.365Z,64.61
2023-04-19T09:13:18.246Z,66.01
2023-04-19T09:14:16.212Z,65.91
2023-04-19T09:15:12.795Z,66.12
2023-04-19T09:16:26.163Z,66.22
2023-04-19T09:17:23.012Z,65.43
2023-04-19T09:18:20.395Z,66.46
2023-04-19T09:19:24.081Z,66.47
2023-04-19T09:20:37.046Z,64.81
2023-04-19T09:21:35.242Z,64.62
2023-04-19T09:22:32.720Z,63.82
2023-04-19T09:23:29.531Z,62.98
2023-04-19T09:25:59.264Z,63.91
2023-04-19T09:26:57.950Z,63.12
2023-04-19T09:27:55.429Z,63.81
2023-04-19T09:29:08.122Z,64.30
2023-04-19T09:30:06.740Z,63.85
2023-04-19T09:31:35.308Z,62.91
2023-04-19T09:32:47.409Z,59.82
2023-04-19T09:33:45.353Z,62.40
2023-04-19T09:35:00.229Z,62.42
2023-04-19T09:35:57.289Z,61.48
2023-04-19T09:37:04.762Z,63.20
2023-04-19T09:38:10.981Z,62.66
2023-04-19T09:39:08.238Z,62.46
2023-04-19T09:40:24.565Z,62.48
2023-04-19T09:41:21.561Z,61.90
2023-04-19T09:42:30.738Z,58.74
2023-04-19T09:44:01.657Z,59.79
2023-04-19T09:45:27.490Z,57.69
2023-04-19T09:46:37.225Z,55.69
2023-04-19T09:47:35.135Z,57.21
2023-04-19T09:48:31.776Z,58.71
2023-04-19T09:49:41.627Z,60.46
2023-04-19T09:50:58.566Z,59.25
2023-04-19T09:51:58.883Z,59.82
2023-04-19T09:52:56.055Z,59.25
2023-04-19T09:53:53.046Z,58.15
2023-04-19T09:54:53.768Z,59.02
2023-04-19T09:56:00.244Z,58.42
2023-04-19T09:57:00.869Z,58.47
2023-04-19T09:57:58.136Z,57.00
2023-04-19T09:59:01.661Z,55.96
2023-04-19T10:00:13.360Z,56.55
2023-04-19T10:01:15.625Z,55.57
2023-04-19T10:02:14.947Z,54.93
2023-04-19T10:03:12.700Z,55.39
2023-04-19T10:04:24.155Z,55.82
2023-04-19T10:05:26.757Z,57.96
2023-04-19T10:07:30.840Z,60.97
2023-04-19T10:08:28.478Z,59.79
2023-04-19T10:09:26.597Z,58.78
2023-04-19T10:10:32.987Z,60.34
2023-04-19T10:11:39.190Z,60.11
2023-04-19T10:12:58.506Z,59.85
2023-04-19T10:13:57.424Z,61.11
2023-04-19T10:14:56.878Z,61.30
2023-04-19T10:15:57.268Z,62.84
2023-04-19T10:17:02.278Z,61.48
2023-04-19T10:17:59.779Z,63.07
2023-04-19T10:18:57.583Z,62.83
2023-04-19T10:20:07.061Z,67.62
2023-04-19T10:21:08.369Z,69.58
2023-04-19T10:22:07.236Z,71.14
2023-04-19T10:23:07.475Z,73.51
2023-04-19T10:24:05.262Z,72.84
2023-04-19T10:25:13.232Z,74.92
2023-04-19T10:26:10.061Z,75.02
2023-04-19T10:27:13.759Z,73.53
2023-04-19T10:28:10.375Z,75.46
2023-04-19T10:29:07.020Z,77.88
2023-04-19T10:30:08.056Z,72.69
2023-04-19T10:31:05.487Z,73.88
2023-04-19T10:32:05.634Z,77.65
2023-04-19T10:33:04.718Z,78.60
2023-04-19T10:34:01.574Z,80.53
2023-04-19T10:35:04.785Z,80.63
2023-04-19T10:36:02.765Z,82.33
2023-04-19T10:36:59.431Z,83.90
2023-04-19T10:38:13.537Z,84.41
2023-04-19T10:39:39.681Z,85.32
2023-04-19T10:40:51.584Z,84.26
2023-04-19T10:41:58.079Z,83.98
2023-04-19T10:43:13.177Z,82.59
2023-04-19T10:44:11.739Z,84.18
2023-04-19T10:45:36.428Z,80.52
2023-04-19T10:46:33.571Z,78.95
2023-04-19T10:47:45.761Z,82.34
2023-04-19T10:48:59.486Z,84.44
2023-04-19T10:49:56.190Z,83.35
2023-04-19T10:51:03.701Z,81.75
2023-04-19T10:52:00.944Z,82.68
2023-04-19T10:52:57.664Z,83.80
2023-04-19T10:53:55.577Z,82.32
2023-04-19T10:54:56.912Z,84.38
2023-04-19T10:55:53.564Z,85.91
2023-04-19T10:57:02.494Z,86.35
2023-04-19T10:58:07.101Z,83.08
2023-04-19T10:59:11.537Z,79.23
2023-04-19T11:00:21.818Z,73.29
2023-04-19T11:01:42.882Z,78.37
2023-04-19T11:02:39.653Z,79.04
2023-04-19T11:03:54.601Z,80.57
2023-04-19T11:04:51.379Z,80.50
2023-04-19T11:06:21.317Z,82.41
2023-04-19T11:07:23.705Z,81.53
2023-04-19T11:08:23.356Z,81.01
2023-04-19T11:09:26.430Z,80.60
2023-04-19T11:10:31.366Z,81.89
2023-04-19T11:11:28.573Z,81.38
2023-04-19T11:12:25.346Z,84.44
2023-04-19T11:13:22.201Z,83.43
2023-04-19T11:14:20.880Z,75.30
2023-04-19T11:15:17.486Z,72.78
2023-04-19T11:16:14.402Z,73.20
2023-04-19T11:17:31.941Z,74.15
2023-04-19T11:18:30.208Z,71.56
2023-04-19T11:19:26.823Z,75.01
2023-04-19T11:20:24.524Z,78.44
2023-04-19T11:21:21.382Z,79.43
2023-04-19T11:22:18.140Z,79.44
2023-04-19T11:23:19.212Z,74.46
2023-04-19T11:24:18.868Z,72.27
2023-04-19T11:25:17.408Z,77.97
2023-04-19T11:26:14.142Z,80.82
2023-04-19T11:27:10.790Z,79.01
2023-04-19T11:28:07.695Z,80.35
2023-04-19T11:29:06.255Z,77.01
2023-04-19T11:30:05.662Z,74.38
2023-04-19T11:31:04.488Z,75.23
2023-04-19T11:32:01.245Z,74.96
2023-04-19T11:32:58.313Z,73.55
2023-04-19T11:33:54.993Z,71.62
2023-04-19T11:34:51.951Z,74.18
2023-04-19T11:35:48.604Z,75.52
2023-04-19T11:36:52.285Z,75.45
2023-04-19T11:37:49.283Z,78.18
2023-04-19T11:38:49.078Z,76.91
2023-04-19T11:39:47.557Z,76.96
2023-04-19T11:40:44.249Z,75.92
2023-04-19T11:41:40.982Z,74.48
2023-04-19T11:42:37.686Z,77.33
2023-04-19T11:43:37.912Z,75.28
2023-04-19T11:44:34.842Z,76.14
2023-04-19T11:45:38.295Z,74.69
2023-04-19T11:46:35.684Z,74.78
2023-04-19T11:47:34.378Z,72.24
2023-04-19T11:48:30.985Z,71.75
2023-04-19T11:49:32.402Z,72.11
2023-04-19T11:50:39.233Z,71.07
2023-04-19T11:51:36.002Z,71.38
2023-04-19T11:52:35.504Z,74.44
2023-04-19T11:53:33.207Z,73.25
2023-04-19T11:54:29.799Z,76.06
2023-04-19T11:55:26.594Z,76.01
2023-04-19T11:56:23.876Z,73.84
2023-04-19T11:57:31.367Z,75.65
2023-04-19T11:58:33.570Z,73.84
2023-04-19T11:59:32.537Z,75.17
2023-04-19T12:00:30.597Z,75.29
2023-04-19T12:01:28.972Z,75.63
2023-04-19T12:02:25.824Z,76.47
2023-04-19T12:03:26.148Z,75.55
2023-04-19T12:04:23.647Z,74.47
2023-04-19T12:05:20.305Z,73.34
2023-04-19T12:06:22.229Z,73.41
2023-04-19T12:07:18.816Z,76.93
2023-04-19T12:08:15.398Z,78.26
2023-04-19T12:09:12.244Z,78.33
2023-04-19T12:10:12.713Z,74.33
2023-04-19T12:11:09.310Z,77.20
2023-04-19T12:12:06.877Z,73.84
2023-04-19T12:13:18.589Z,74.68
2023-04-19T12:14:17.400Z,74.81
2023-04-19T12:15:14.103Z,74.94
2023-04-19T12:16:12.053Z,75.48
2023-04-19T12:17:11.905Z,74.67
2023-04-19T12:18:08.643Z,74.88
2023-04-19T12:19:20.742Z,75.44
2023-04-19T12:20:33.004Z,76.64
2023-04-19T12:21:32.950Z,68.85
2023-04-19T12:22:29.530Z,70.35
2023-04-19T12:23:26.159Z,74.91
2023-04-19T12:24:22.748Z,68.27
2023-04-19T12:25:19.360Z,71.18
2023-04-19T12:26:16.603Z,75.86
2023-04-19T12:27:17.823Z,74.70
2023-04-19T12:28:15.943Z,77.41
2023-04-19T12:29:12.626Z,76.96
2023-04-19T12:30:09.929Z,76.32
2023-04-19T12:31:06.612Z,77.40
2023-04-19T12:32:03.800Z,78.76
2023-04-19T12:33:00.745Z,75.18
2023-04-19T12:33:57.357Z,76.49
2023-04-19T12:34:54.458Z,76.76
2023-04-19T12:35:51.250Z,79.26
2023-04-19T12:36:47.851Z,80.67
2023-04-19T12:37:44.457Z,79.93
2023-04-19T12:38:41.255Z,81.07
2023-04-19T12:39:38.024Z,80.10
2023-04-19T12:40:34.676Z,81.17